createdAt,value
2018-07-07T00:00:35.696Z,0.00
2018-07-07T00:01:35.659Z,0.00
2018-07-07T00:02:35.571Z,0.00
2018-07-07T00:03:35.666Z,0.00
2018-07-07T00:04:35.565Z,0.00
2018-07-07T00:05:35.498Z,0.00
2018-07-07T00:06:35.513Z,0.00
2018-07-07T00:07:35.461Z,0.00
2018-07-07T00:08:35.507Z,0.00
2018-07-07T00:09:35.439Z,0.00
2018-07-07T00:10:35.391Z,0.00
2018-07-07T00:11:35.403Z,0.00
2018-07-07T00:12:35.355Z,0.00
2018-07-07T00:13:35.302Z,0.00
2018-07-07T00:14:35.325Z,0.00
2018-07-07T00:15:35.295Z,0.00
2018-07-07T00:16:35.229Z,0.00
2018-07-07T00:17:35.244Z,0.00
2018-07-07T00:18:35.278Z,0.00
2018-07-07T00:19:35.149Z,0.00
2018-07-07T00:20:35.181Z,0.00
2018-07-07T00:21:35.120Z,0.00
2018-07-07T00:22:35.280Z,0.00
2018-07-07T00:23:35.112Z,0.00
2018-07-07T00:24:35.030Z,0.00
2018-07-07T00:25:35.061Z,0.00
2018-07-07T00:26:35.092Z,0.00
2018-07-07T00:27:35.041Z,0.00
2018-07-07T00:28:34.977Z,0.00
2018-07-07T00:29:35.009Z,0.00
2018-07-07T00:30:34.967Z,0.00
2018-07-07T00:31:35.029Z,0.00
2018-07-07T00:32:34.919Z,0.00
2018-07-07T00:33:34.807Z,0.00
2018-07-07T00:34:34.844Z,0.00
2018-07-07T00:35:34.857Z,0.00
2018-07-07T00:36:34.857Z,0.00
2018-07-07T00:37:34.716Z,0.00
2018-07-07T00:38:34.701Z,0.00
2018-07-07T00:39:34.711Z,0.00
2018-07-07T00:40:34.656Z,0.00
2018-07-07T00:41:34.658Z,0.00
2018-07-07T00:42:34.593Z,0.00
2018-07-07T00:43:34.597Z,0.00
2018-07-07T00:44:34.541Z,0.00
2018-07-07T00:45:34.574Z,0.00
2018-07-07T00:46:34.505Z,0.00
2018-07-07T00:47:34.559Z,0.00
2018-07-07T00:48:34.509Z,0.00
2018-07-07T00:49:34.413Z,0.00
2018-07-07T00:50:34.593Z,0.00
2018-07-07T00:51:34.360Z,0.00
2018-07-07T00:52:34.398Z,0.00
2018-07-07T00:53:34.366Z,0.00
2018-07-07T00:54:34.357Z,0.00
2018-07-07T00:55:34.279Z,0.00
2018-07-07T00:56:34.246Z,0.00
2018-07-07T00:57:35.008Z,0.00
2018-07-07T00:58:34.184Z,0.00
2018-07-07T00:59:34.187Z,0.00
2018-07-07T01:00:34.143Z,0.00
2018-07-07T01:01:34.188Z,0.00
2018-07-07T01:02:34.202Z,0.00
2018-07-07T01:03:34.103Z,0.00
2018-07-07T01:04:34.100Z,0.00
2018-07-07T01:05:34.159Z,0.00
2018-07-07T01:06:34.006Z,0.00
2018-07-07T01:07:33.966Z,0.00
2018-07-07T01:08:33.963Z,0.00
2018-07-07T01:09:33.948Z,0.00
2018-07-07T01:10:33.944Z,0.00
2018-07-07T01:11:33.971Z,0.00
2018-07-07T01:12:33.864Z,0.00
2018-07-07T01:13:33.872Z,0.00
2018-07-07T01:14:33.927Z,0.00
2018-07-07T01:15:33.784Z,0.00
2018-07-07T01:16:33.819Z,0.00
2018-07-07T01:17:33.822Z,0.00
2018-07-07T01:18:33.797Z,0.00
2018-07-07T01:19:33.732Z,0.00
2018-07-07T01:20:33.717Z,0.00
2018-07-07T01:21:33.660Z,0.00
2018-07-07T01:22:33.669Z,0.00
2018-07-07T01:23:33.569Z,0.00
2018-07-07T01:24:33.589Z,0.00
2018-07-07T01:25:33.662Z,0.00
2018-07-07T01:26:33.565Z,0.00
2018-07-07T01:27:33.517Z,0.00
2018-07-07T01:28:33.471Z,0.00
2018-07-07T01:29:33.578Z,0.00
2018-07-07T01:30:33.512Z,0.00
2018-07-07T01:31:33.423Z,0.00
2018-07-07T01:32:33.400Z,0.00
2018-07-07T01:33:33.318Z,0.00
2018-07-07T01:34:33.411Z,0.00
2018-07-07T01:35:33.337Z,0.00
2018-07-07T01:36:33.319Z,0.00
2018-07-07T01:37:33.266Z,0.00
2018-07-07T01:38:33.244Z,0.00
2018-07-07T01:39:33.180Z,0.00
2018-07-07T01:40:33.168Z,0.00
2018-07-07T01:41:33.162Z,0.00
2018-07-07T01:42:33.155Z,0.00
2018-07-07T01:43:33.242Z,0.00
2018-07-07T01:44:33.047Z,0.00
2018-07-07T01:45:33.089Z,0.00
2018-07-07T01:46:32.998Z,0.00
2018-07-07T01:47:33.060Z,0.00
2018-07-07T01:48:32.964Z,0.00
2018-07-07T01:49:32.987Z,0.00
2018-07-07T01:50:32.926Z,0.00
2018-07-07T01:51:32.928Z,0.00
2018-07-07T01:52:32.842Z,0.00
2018-07-07T01:53:32.896Z,0.00
2018-07-07T01:54:32.879Z,0.00
2018-07-07T01:55:32.874Z,0.00
2018-07-07T01:56:32.741Z,0.00
2018-07-07T01:57:32.739Z,0.00
2018-07-07T01:58:32.693Z,0.00
2018-07-07T01:59:32.673Z,0.00
2018-07-07T02:00:32.695Z,0.00
2018-07-07T02:01:32.656Z,0.00
2018-07-07T02:02:32.594Z,0.00
2018-07-07T02:03:32.589Z,0.00
2018-07-07T02:04:32.558Z,0.00
2018-07-07T02:05:32.535Z,0.00
2018-07-07T02:06:32.490Z,0.00
2018-07-07T02:07:32.486Z,0.00
2018-07-07T02:08:32.441Z,0.00
2018-07-07T02:09:32.412Z,0.00
2018-07-07T02:10:32.433Z,0.00
2018-07-07T02:11:32.371Z,0.00
2018-07-07T02:12:32.347Z,0.00
2018-07-07T02:13:32.332Z,0.00
2018-07-07T02:14:32.292Z,0.00
2018-07-07T02:15:32.267Z,0.00
2018-07-07T02:16:32.252Z,0.00
2018-07-07T02:17:32.269Z,0.00
2018-07-07T02:18:32.221Z,0.00
2018-07-07T02:19:32.181Z,0.00
2018-07-07T02:20:32.176Z,0.00
2018-07-07T02:21:32.122Z,0.00
2018-07-07T02:22:32.098Z,0.00
2018-07-07T02:23:32.102Z,0.00
2018-07-07T02:24:32.105Z,0.00
2018-07-07T02:25:32.019Z,0.00
2018-07-07T02:26:32.027Z,0.00
2018-07-07T02:27:31.969Z,0.00
2018-07-07T02:28:31.937Z,0.00
2018-07-07T02:29:31.934Z,0.00
2018-07-07T02:30:31.950Z,0.00
2018-07-07T02:31:31.944Z,0.00
2018-07-07T02:32:31.851Z,0.00
2018-07-07T02:33:31.865Z,0.00
2018-07-07T02:34:31.872Z,0.00
2018-07-07T02:35:31.781Z,0.00
2018-07-07T02:36:31.774Z,0.00
2018-07-07T02:37:31.726Z,0.00
2018-07-07T02:38:31.700Z,0.00
2018-07-07T02:39:31.699Z,0.00
2018-07-07T02:40:31.641Z,0.00
2018-07-07T02:41:31.616Z,0.00
2018-07-07T02:42:31.614Z,0.00
2018-07-07T02:43:31.580Z,0.00
2018-07-07T02:44:31.577Z,0.00
2018-07-07T02:45:31.538Z,0.00
2018-07-07T02:46:31.558Z,0.00
2018-07-07T02:47:31.468Z,0.00
2018-07-07T02:48:31.461Z,4.00
2018-07-07T02:49:31.484Z,4.00
2018-07-07T02:50:31.399Z,0.00
2018-07-07T02:51:31.377Z,4.00
2018-07-07T02:52:31.384Z,4.00
2018-07-07T02:53:31.319Z,4.00
2018-07-07T02:54:31.300Z,4.00
2018-07-07T02:55:31.273Z,4.00
2018-07-07T02:56:31.259Z,8.00
2018-07-07T02:57:31.222Z,4.00
2018-07-07T02:58:31.209Z,8.00
2018-07-07T02:59:31.190Z,8.00
2018-07-07T03:00:31.159Z,8.00
2018-07-07T03:01:31.132Z,12.00
2018-07-07T03:02:31.157Z,12.00
2018-07-07T03:03:31.073Z,16.00
2018-07-07T03:04:31.039Z,16.00
2018-07-07T03:05:31.081Z,20.00
2018-07-07T03:06:31.057Z,20.00
2018-07-07T03:07:30.978Z,24.00
2018-07-07T03:08:30.950Z,24.00
2018-07-07T03:09:30.926Z,28.00
2018-07-07T03:10:30.896Z,28.00
2018-07-07T03:11:30.901Z,32.00
2018-07-07T03:12:30.837Z,36.00
2018-07-07T03:13:30.810Z,40.00
2018-07-07T03:14:30.810Z,44.00
2018-07-07T03:15:30.777Z,44.00
2018-07-07T03:16:30.747Z,48.00
2018-07-07T03:17:30.718Z,56.00
2018-07-07T03:18:30.697Z,60.00
2018-07-07T03:19:30.663Z,68.00
2018-07-07T03:20:30.652Z,72.00
2018-07-07T03:21:30.615Z,80.00
2018-07-07T03:22:30.592Z,84.00
2018-07-07T03:23:30.559Z,92.00
2018-07-07T03:24:30.527Z,100.00
2018-07-07T03:25:30.532Z,112.00
2018-07-07T03:26:30.489Z,116.00
2018-07-07T03:27:30.492Z,128.00
2018-07-07T03:28:30.442Z,136.00
2018-07-07T03:29:30.416Z,144.00
2018-07-07T03:30:30.389Z,152.00
2018-07-07T03:31:30.358Z,160.00
2018-07-07T03:32:30.333Z,168.00
2018-07-07T03:33:30.311Z,176.00
2018-07-07T03:34:30.282Z,188.00
2018-07-07T03:35:30.261Z,192.00
2018-07-07T03:36:30.229Z,204.00
2018-07-07T03:37:30.216Z,208.00
2018-07-07T03:38:30.181Z,220.00
2018-07-07T03:39:30.178Z,232.00
2018-07-07T03:40:30.144Z,240.00
2018-07-07T03:41:30.098Z,252.00
2018-07-07T03:42:30.075Z,260.00
2018-07-07T03:43:30.055Z,268.00
2018-07-07T03:44:30.047Z,280.00
2018-07-07T03:45:30.006Z,292.00
2018-07-07T03:46:29.978Z,304.00
2018-07-07T03:47:29.945Z,316.00
2018-07-07T03:48:29.917Z,332.00
2018-07-07T03:49:29.896Z,340.00
2018-07-07T03:50:29.868Z,348.00
2018-07-07T03:51:29.842Z,352.00
2018-07-07T03:52:29.838Z,356.00
2018-07-07T03:53:29.814Z,360.00
2018-07-07T03:54:29.807Z,360.00
2018-07-07T03:55:29.747Z,368.00
2018-07-07T03:56:29.721Z,384.00
2018-07-07T03:57:29.714Z,404.00
2018-07-07T03:58:29.671Z,432.00
2018-07-07T03:59:29.639Z,460.00
2018-07-07T04:00:29.620Z,504.00
2018-07-07T04:01:29.584Z,576.00
2018-07-07T04:02:29.559Z,644.00
2018-07-07T04:03:29.534Z,688.00
2018-07-07T04:04:29.514Z,724.00
2018-07-07T04:05:29.479Z,764.00
2018-07-07T04:06:29.486Z,800.00
2018-07-07T04:07:29.439Z,828.00
2018-07-07T04:08:29.415Z,856.00
2018-07-07T04:09:29.388Z,872.00
2018-07-07T04:10:29.356Z,900.00
2018-07-07T04:11:29.364Z,924.00
2018-07-07T04:12:29.311Z,936.00
2018-07-07T04:13:29.284Z,956.00
2018-07-07T04:14:29.260Z,976.00
2018-07-07T04:15:29.248Z,992.00
2018-07-07T04:16:29.215Z,1004.00
2018-07-07T04:17:29.246Z,1016.00
2018-07-07T04:18:29.158Z,1028.00
2018-07-07T04:19:29.128Z,1032.00
2018-07-07T04:20:29.096Z,1032.00
2018-07-07T04:21:29.081Z,1036.00
2018-07-07T04:22:29.075Z,1044.00
2018-07-07T04:23:29.024Z,1064.00
2018-07-07T04:24:28.999Z,1088.00
2018-07-07T04:25:28.999Z,1124.00
2018-07-07T04:26:28.947Z,1164.00
2018-07-07T04:27:28.922Z,1212.00
2018-07-07T04:28:49.169Z,1264.00
2018-07-07T04:30:32.950Z,1380.00
2018-07-07T04:31:32.729Z,1436.00
2018-07-07T04:33:36.630Z,1532.00
2018-07-07T04:34:36.046Z,1588.00
2018-07-07T04:36:30.420Z,1688.00
2018-07-07T04:37:30.362Z,1732.00
2018-07-07T04:39:24.831Z,1820.00
2018-07-07T04:40:24.695Z,1832.00
2018-07-07T04:42:37.551Z,1888.00
2018-07-07T04:43:37.850Z,1896.00
2018-07-07T04:45:43.532Z,1936.00
2018-07-07T04:46:43.345Z,1932.00
2018-07-07T04:48:53.721Z,1920.00
2018-07-07T04:49:53.701Z,1920.00
2018-07-07T04:52:09.679Z,1968.00
2018-07-07T04:53:09.534Z,1964.00
2018-07-07T04:55:15.372Z,1960.00
2018-07-07T04:56:15.303Z,1964.00
2018-07-07T04:58:19.729Z,2004.00
2018-07-07T04:59:19.754Z,2008.00
2018-07-07T05:01:25.620Z,2028.00
2018-07-07T05:02:25.467Z,2028.00
2018-07-07T05:04:28.997Z,2072.00
2018-07-07T05:05:28.820Z,2080.00
2018-07-07T05:07:35.536Z,2108.00
2018-07-07T05:08:35.489Z,2132.00
2018-07-07T05:10:39.405Z,2156.00
2018-07-07T05:11:39.320Z,2176.00
2018-07-07T05:13:52.225Z,2208.00
2018-07-07T05:14:52.103Z,2224.00
2018-07-07T05:16:48.936Z,2240.00
2018-07-07T05:17:48.811Z,2248.00
2018-07-07T05:19:53.225Z,2268.00
2018-07-07T05:20:53.285Z,2276.00
2018-07-07T05:22:54.652Z,2304.00
2018-07-07T05:23:54.492Z,2328.00
2018-07-07T05:26:00.420Z,2356.00
2018-07-07T05:27:00.342Z,2368.00
2018-07-07T05:29:07.235Z,2396.00
2018-07-07T05:30:07.217Z,2412.00
2018-07-07T05:32:20.088Z,2436.00
2018-07-07T05:33:20.021Z,2460.00
2018-07-07T05:35:23.343Z,2472.00
2018-07-07T05:36:23.361Z,2476.00
2018-07-07T05:38:21.330Z,2504.00
2018-07-07T05:39:21.117Z,2512.00
2018-07-07T05:41:24.486Z,2524.00
2018-07-07T05:42:24.433Z,2544.00
2018-07-07T05:44:24.842Z,2556.00
2018-07-07T05:45:24.824Z,2560.00
2018-07-07T05:47:27.814Z,2572.00
2018-07-07T05:48:27.707Z,2592.00
2018-07-07T05:50:23.538Z,2612.00
2018-07-07T05:51:23.548Z,2632.00
2018-07-07T05:53:18.988Z,2640.00
2018-07-07T05:54:17.951Z,2596.00
2018-07-07T05:56:12.316Z,2612.00
2018-07-07T05:57:12.209Z,2648.00
2018-07-07T05:59:20.104Z,2692.00
2018-07-07T06:00:20.025Z,2688.00
2018-07-07T06:02:24.561Z,2716.00
2018-07-07T06:03:24.345Z,2720.00
2018-07-07T06:05:35.811Z,2740.00
2018-07-07T06:06:35.648Z,2744.00
2018-07-07T06:08:54.507Z,2736.00
2018-07-07T06:09:54.580Z,2736.00
2018-07-07T06:11:50.393Z,2752.00
2018-07-07T06:12:50.313Z,2756.00
2018-07-07T06:14:48.294Z,2772.00
2018-07-07T06:15:48.231Z,2792.00
2018-07-07T06:17:51.485Z,2808.00
2018-07-07T06:18:51.505Z,2808.00
2018-07-07T06:20:54.936Z,2816.00
2018-07-07T06:21:54.794Z,2824.00
2018-07-07T06:23:58.732Z,2844.00
2018-07-07T06:24:58.642Z,2856.00
2018-07-07T06:27:01.992Z,2848.00
2018-07-07T06:28:02.076Z,2860.00
2018-07-07T06:30:04.878Z,2876.00
2018-07-07T06:31:04.850Z,2864.00
2018-07-07T06:33:09.851Z,2868.00
2018-07-07T06:34:09.833Z,2876.00
2018-07-07T06:35:10.000Z,2876.00
2018-07-07T06:36:09.734Z,2880.00
2018-07-07T06:37:09.725Z,2896.00
2018-07-07T06:38:09.711Z,2896.00
2018-07-07T06:39:09.686Z,2908.00
2018-07-07T06:40:09.635Z,2912.00
2018-07-07T06:41:09.605Z,2908.00
2018-07-07T06:42:09.593Z,2912.00
2018-07-07T06:43:09.562Z,2920.00
2018-07-07T06:44:09.586Z,2940.00
2018-07-07T06:45:09.505Z,2936.00
2018-07-07T06:46:09.486Z,2936.00
2018-07-07T06:47:09.475Z,2940.00
2018-07-07T06:48:09.435Z,2944.00
2018-07-07T06:49:09.414Z,2948.00
2018-07-07T06:50:09.445Z,2960.00
2018-07-07T06:51:09.358Z,2952.00
2018-07-07T06:52:09.333Z,2968.00
2018-07-07T06:53:09.307Z,2956.00
2018-07-07T06:54:09.287Z,2960.00
2018-07-07T06:55:09.250Z,2968.00
2018-07-07T06:56:09.253Z,2980.00
2018-07-07T06:57:09.208Z,2964.00
2018-07-07T06:58:09.179Z,2972.00
2018-07-07T06:59:09.159Z,2976.00
2018-07-07T07:00:09.128Z,2980.00
2018-07-07T07:01:09.108Z,2980.00
2018-07-07T07:02:09.083Z,2984.00
2018-07-07T07:03:09.101Z,2988.00
2018-07-07T07:04:09.027Z,2992.00
2018-07-07T07:05:09.003Z,3000.00
2018-07-07T07:06:09.019Z,3000.00
2018-07-07T07:07:08.953Z,3008.00
2018-07-07T07:08:08.932Z,3012.00
2018-07-07T07:09:08.908Z,3016.00
2018-07-07T07:10:08.889Z,3016.00
2018-07-07T07:11:08.865Z,3024.00
2018-07-07T07:12:08.836Z,3020.00
2018-07-07T07:13:08.808Z,3020.00
2018-07-07T07:14:08.857Z,3032.00
2018-07-07T07:15:08.802Z,3036.00
2018-07-07T07:16:08.733Z,3048.00
2018-07-07T07:17:08.708Z,3048.00
2018-07-07T07:18:08.676Z,3060.00
2018-07-07T07:19:08.703Z,3068.00
2018-07-07T07:20:08.700Z,3076.00
2018-07-07T07:21:08.744Z,3076.00
2018-07-07T07:22:08.666Z,3084.00
2018-07-07T07:23:08.604Z,3088.00
2018-07-07T07:24:08.613Z,3088.00
2018-07-07T07:25:08.596Z,3092.00
2018-07-07T07:26:08.624Z,3100.00
2018-07-07T07:27:08.471Z,3096.00
2018-07-07T07:28:08.439Z,3096.00
2018-07-07T07:29:08.415Z,3112.00
2018-07-07T07:30:08.392Z,3104.00
2018-07-07T07:31:08.360Z,3108.00
2018-07-07T07:32:08.374Z,3108.00
2018-07-07T07:33:08.373Z,3120.00
2018-07-07T07:34:11.210Z,3116.00
2018-07-07T07:35:08.295Z,3116.00
2018-07-07T07:36:08.242Z,3124.00
2018-07-07T07:37:08.489Z,3128.00
2018-07-07T07:38:08.260Z,3136.00
2018-07-07T07:39:08.238Z,3144.00
2018-07-07T07:40:08.143Z,3156.00
2018-07-07T07:41:08.131Z,3172.00
2018-07-07T07:42:08.151Z,3160.00
2018-07-07T07:43:08.144Z,3164.00
2018-07-07T07:44:08.301Z,3172.00
2018-07-07T07:45:08.069Z,3176.00
2018-07-07T07:46:07.998Z,3180.00
2018-07-07T07:47:07.973Z,3188.00
2018-07-07T07:48:07.982Z,3212.00
2018-07-07T07:49:07.971Z,3196.00
2018-07-07T07:50:07.904Z,3204.00
2018-07-07T07:51:07.930Z,3200.00
2018-07-07T07:52:07.841Z,3212.00
2018-07-07T07:53:07.824Z,3220.00
2018-07-07T07:54:07.800Z,3232.00
2018-07-07T07:55:07.901Z,3244.00
2018-07-07T07:56:07.749Z,3260.00
2018-07-07T07:57:07.741Z,3256.00
2018-07-07T07:58:07.702Z,3276.00
2018-07-07T07:59:07.681Z,3276.00
2018-07-07T08:00:07.662Z,3284.00
2018-07-07T08:01:07.644Z,3292.00
2018-07-07T08:02:07.669Z,3304.00
2018-07-07T08:03:07.663Z,3316.00
2018-07-07T08:04:07.611Z,3348.00
2018-07-07T08:05:07.522Z,3332.00
2018-07-07T08:06:07.508Z,3348.00
2018-07-07T08:07:07.533Z,3356.00
2018-07-07T08:08:07.943Z,3360.00
2018-07-07T08:09:07.547Z,3368.00
2018-07-07T08:10:07.598Z,3376.00
2018-07-07T08:11:10.335Z,3380.00
2018-07-07T08:12:07.691Z,3388.00
2018-07-07T08:13:07.365Z,3400.00
2018-07-07T08:14:07.732Z,3416.00
2018-07-07T08:15:07.426Z,3424.00
2018-07-07T08:16:07.292Z,3432.00
2018-07-07T08:17:07.240Z,3440.00
2018-07-07T08:18:07.239Z,3448.00
2018-07-07T08:19:07.198Z,3464.00
2018-07-07T08:20:07.271Z,3476.00
2018-07-07T08:21:07.184Z,3496.00
2018-07-07T08:22:07.193Z,3512.00
2018-07-07T08:23:07.188Z,3528.00
2018-07-07T08:24:07.196Z,3536.00
2018-07-07T08:25:07.082Z,3556.00
2018-07-07T08:26:07.024Z,3572.00
2018-07-07T08:27:07.054Z,3580.00
2018-07-07T08:28:07.060Z,3572.00
2018-07-07T08:29:07.063Z,3576.00
2018-07-07T08:30:06.950Z,3600.00
2018-07-07T08:31:06.912Z,3628.00
2018-07-07T08:32:06.897Z,3652.00
2018-07-07T08:33:06.863Z,3684.00
2018-07-07T08:34:08.786Z,3704.00
2018-07-07T08:35:06.848Z,3728.00
2018-07-07T08:36:06.782Z,3736.00
2018-07-07T08:37:06.776Z,3752.00
2018-07-07T08:38:06.739Z,3776.00
2018-07-07T08:39:06.717Z,3784.00
2018-07-07T08:40:06.705Z,3808.00
2018-07-07T08:41:06.682Z,3828.00
2018-07-07T08:42:06.676Z,3836.00
2018-07-07T08:43:06.630Z,3848.00
2018-07-07T08:44:06.607Z,3856.00
2018-07-07T08:45:06.581Z,3868.00
2018-07-07T08:46:06.567Z,3880.00
2018-07-07T08:47:06.537Z,3896.00
2018-07-07T08:48:06.502Z,3896.00
2018-07-07T08:49:06.494Z,3912.00
2018-07-07T08:50:06.508Z,3912.00
2018-07-07T08:51:06.666Z,3928.00
2018-07-07T08:52:06.418Z,3968.00
2018-07-07T08:53:06.389Z,3984.00
2018-07-07T08:54:06.383Z,4004.00
2018-07-07T08:55:06.334Z,4012.00
2018-07-07T08:56:06.312Z,4016.00
2018-07-07T08:57:06.325Z,4028.00
2018-07-07T08:58:06.276Z,4040.00
2018-07-07T08:59:06.240Z,4048.00
2018-07-07T09:00:06.232Z,4068.00
2018-07-07T09:01:06.196Z,4060.00
2018-07-07T09:02:06.205Z,4068.00
2018-07-07T09:03:29.345Z,4088.00
2018-07-07T09:05:10.021Z,4092.00
2018-07-07T09:06:09.984Z,4068.00
2018-07-07T09:08:22.892Z,4112.00
2018-07-07T09:09:22.808Z,4128.00
2018-07-07T09:11:27.269Z,4148.00
2018-07-07T09:12:27.122Z,4116.00
2018-07-07T09:14:30.643Z,4172.00
2018-07-07T09:15:30.421Z,4136.00
2018-07-07T09:17:43.906Z,4176.00
2018-07-07T09:18:43.773Z,4156.00
2018-07-07T09:20:49.719Z,4196.00
2018-07-07T09:21:49.345Z,4208.00
2018-07-07T09:23:52.275Z,4256.00
2018-07-07T09:24:52.122Z,4260.00
2018-07-07T09:25:52.175Z,4268.00
2018-07-07T09:26:52.078Z,4276.00
2018-07-07T09:27:52.053Z,4288.00
2018-07-07T09:28:52.038Z,4292.00
2018-07-07T09:29:52.011Z,4304.00
2018-07-07T09:30:52.021Z,4328.00
2018-07-07T09:31:51.958Z,4356.00
2018-07-07T09:32:51.961Z,4376.00
2018-07-07T09:33:51.919Z,4388.00
2018-07-07T09:34:51.912Z,4376.00
2018-07-07T09:35:51.882Z,4400.00
2018-07-07T09:36:51.856Z,4440.00
2018-07-07T09:37:51.834Z,4460.00
2018-07-07T09:38:51.894Z,4436.00
2018-07-07T09:39:51.792Z,4444.00
2018-07-07T09:40:51.773Z,4436.00
2018-07-07T09:41:51.738Z,4436.00
2018-07-07T09:42:51.719Z,4432.00
2018-07-07T09:43:51.697Z,4436.00
2018-07-07T09:44:51.676Z,4460.00
2018-07-07T09:45:51.645Z,4468.00
2018-07-07T09:46:51.632Z,4452.00
2018-07-07T09:47:51.609Z,4480.00
2018-07-07T09:48:51.575Z,4484.00
2018-07-07T09:49:51.562Z,4476.00
2018-07-07T09:50:51.532Z,4476.00
2018-07-07T09:51:51.512Z,4488.00
2018-07-07T09:52:51.487Z,4492.00
2018-07-07T09:53:51.464Z,4484.00
2018-07-07T09:54:51.468Z,4496.00
2018-07-07T09:55:51.419Z,4492.00
2018-07-07T09:56:51.415Z,4488.00
2018-07-07T09:57:51.375Z,4484.00
2018-07-07T09:58:51.360Z,4472.00
2018-07-07T09:59:51.328Z,4484.00
2018-07-07T10:00:51.308Z,4480.00
2018-07-07T10:01:51.320Z,4480.00
2018-07-07T10:02:51.265Z,4480.00
2018-07-07T10:03:51.240Z,4484.00
2018-07-07T10:04:51.220Z,4476.00
2018-07-07T10:05:51.225Z,4484.00
2018-07-07T10:06:51.183Z,4488.00
2018-07-07T10:07:51.158Z,4492.00
2018-07-07T10:08:51.142Z,4492.00
2018-07-07T10:09:51.196Z,4472.00
2018-07-07T10:10:51.084Z,4480.00
2018-07-07T10:11:51.126Z,4468.00
2018-07-07T10:12:51.127Z,4476.00
2018-07-07T10:13:51.083Z,4472.00
2018-07-07T10:14:51.077Z,4496.00
2018-07-07T10:15:51.015Z,4484.00
2018-07-07T10:16:51.005Z,4464.00
2018-07-07T10:17:51.029Z,4456.00
2018-07-07T10:18:50.903Z,4496.00
2018-07-07T10:19:50.931Z,4488.00
2018-07-07T10:20:50.883Z,4500.00
2018-07-07T10:21:50.842Z,4500.00
2018-07-07T10:22:50.859Z,4504.00
2018-07-07T10:23:50.854Z,4492.00
2018-07-07T10:24:50.774Z,4440.00
2018-07-07T10:25:50.754Z,4472.00
2018-07-07T10:26:50.741Z,4460.00
2018-07-07T10:27:50.751Z,4452.00
2018-07-07T10:28:50.702Z,4456.00
2018-07-07T10:29:50.683Z,4476.00
2018-07-07T10:30:50.638Z,4496.00
2018-07-07T10:31:50.623Z,4488.00
2018-07-07T10:32:50.615Z,4484.00
2018-07-07T10:33:50.593Z,4520.00
2018-07-07T10:34:50.569Z,4452.00
2018-07-07T10:35:50.529Z,4536.00
2018-07-07T10:36:50.522Z,4540.00
2018-07-07T10:37:50.492Z,4540.00
2018-07-07T10:38:50.468Z,4552.00
2018-07-07T10:39:50.471Z,4560.00
2018-07-07T10:40:50.432Z,4560.00
2018-07-07T10:41:50.397Z,4564.00
2018-07-07T10:42:50.376Z,4560.00
2018-07-07T10:43:50.365Z,4564.00
2018-07-07T10:44:50.338Z,4560.00
2018-07-07T10:45:50.495Z,4556.00
2018-07-07T10:46:50.296Z,4564.00
2018-07-07T10:47:50.285Z,4576.00
2018-07-07T10:48:50.306Z,4584.00
2018-07-07T10:49:50.227Z,4588.00
2018-07-07T10:50:50.221Z,4600.00
2018-07-07T10:51:50.238Z,4608.00
2018-07-07T10:52:50.179Z,4632.00
2018-07-07T10:53:50.157Z,4628.00
2018-07-07T10:54:50.165Z,4620.00
2018-07-07T10:55:50.096Z,4648.00
2018-07-07T10:56:50.084Z,4628.00
2018-07-07T10:57:50.067Z,4664.00
2018-07-07T10:58:50.061Z,4688.00
2018-07-07T10:59:50.018Z,4676.00
2018-07-07T11:00:50.034Z,4664.00
2018-07-07T11:01:49.970Z,4660.00
2018-07-07T11:02:49.951Z,4696.00
2018-07-07T11:03:49.940Z,4680.00
2018-07-07T11:04:49.920Z,4704.00
2018-07-07T11:05:49.922Z,4692.00
2018-07-07T11:06:49.872Z,4676.00
2018-07-07T11:07:49.873Z,4684.00
2018-07-07T11:08:49.828Z,4692.00
2018-07-07T11:09:49.841Z,4688.00
2018-07-07T11:10:49.862Z,4680.00
2018-07-07T11:11:49.836Z,4688.00
2018-07-07T11:12:49.747Z,4704.00
2018-07-07T11:13:49.733Z,4712.00
2018-07-07T11:14:49.699Z,4716.00
2018-07-07T11:15:49.717Z,4692.00
2018-07-07T11:16:49.687Z,4700.00
2018-07-07T11:17:49.642Z,4736.00
2018-07-07T11:18:49.709Z,4736.00
2018-07-07T11:19:49.601Z,4748.00
2018-07-07T11:20:49.580Z,4744.00
2018-07-07T11:21:49.548Z,4772.00
2018-07-07T11:22:49.583Z,4760.00
2018-07-07T11:23:49.578Z,4784.00
2018-07-07T11:24:49.492Z,4796.00
2018-07-07T11:25:49.476Z,4800.00
2018-07-07T11:26:49.452Z,4824.00
2018-07-07T11:27:49.488Z,4856.00
2018-07-07T11:28:49.410Z,4896.00
2018-07-07T11:29:49.409Z,4908.00
2018-07-07T11:30:49.373Z,4924.00
2018-07-07T11:31:49.350Z,4900.00
2018-07-07T11:32:49.334Z,4992.00
2018-07-07T11:33:49.298Z,5000.00
2018-07-07T11:34:49.301Z,5120.00
2018-07-07T11:35:49.272Z,5472.00
2018-07-07T11:36:49.313Z,5688.00
2018-07-07T11:37:49.225Z,5716.00
2018-07-07T11:38:49.203Z,5728.00
2018-07-07T11:39:49.171Z,5752.00
2018-07-07T11:40:49.160Z,5828.00
2018-07-07T11:41:49.138Z,5868.00
2018-07-07T11:42:49.127Z,5936.00
2018-07-07T11:43:49.100Z,5956.00
2018-07-07T11:44:49.076Z,6088.00
2018-07-07T11:45:49.059Z,6148.00
2018-07-07T11:46:49.034Z,6196.00
2018-07-07T11:47:49.015Z,6248.00
2018-07-07T11:48:48.996Z,6292.00
2018-07-07T11:49:49.015Z,6308.00
2018-07-07T11:50:48.976Z,6432.00
2018-07-07T11:51:48.957Z,6524.00
2018-07-07T11:52:48.933Z,6552.00
2018-07-07T11:53:48.910Z,6528.00
2018-07-07T11:54:48.885Z,6572.00
2018-07-07T11:55:48.877Z,6512.00
2018-07-07T11:56:48.861Z,6592.00
2018-07-07T11:57:48.840Z,6748.00
2018-07-07T11:58:48.833Z,6584.00
2018-07-07T11:59:48.795Z,6976.00
2018-07-07T12:00:48.858Z,7040.00
2018-07-07T12:01:48.817Z,7072.00
2018-07-07T12:02:48.771Z,7088.00
2018-07-07T12:03:48.741Z,7184.00
2018-07-07T12:04:48.751Z,7216.00
2018-07-07T12:05:48.703Z,7324.00
2018-07-07T12:06:48.764Z,7008.00
2018-07-07T12:08:00.711Z,7064.00
2018-07-07T12:08:48.651Z,7544.00
2018-07-07T12:09:48.631Z,7716.00
2018-07-07T12:10:48.642Z,7732.00
2018-07-07T12:11:48.637Z,7688.00
2018-07-07T12:12:48.581Z,7648.00
2018-07-07T12:13:48.568Z,4656.00
2018-07-07T12:14:48.566Z,6232.00
2018-07-07T12:15:48.551Z,7924.00
2018-07-07T12:16:48.521Z,7920.00
2018-07-07T12:17:48.510Z,8072.00
2018-07-07T12:18:48.497Z,8020.00
2018-07-07T12:19:48.477Z,8224.00
2018-07-07T12:20:48.455Z,8280.00
2018-07-07T12:21:48.455Z,8376.00
2018-07-07T12:22:48.433Z,8264.00
2018-07-07T12:23:48.425Z,8140.00
2018-07-07T12:24:48.429Z,8124.00
2018-07-07T12:25:48.379Z,8252.00
2018-07-07T12:26:48.359Z,8564.00
2018-07-07T12:27:48.364Z,8616.00
2018-07-07T12:28:48.368Z,8736.00
2018-07-07T12:29:48.363Z,8896.00
2018-07-07T12:30:48.311Z,8944.00
2018-07-07T12:31:48.284Z,9016.00
2018-07-07T12:32:48.290Z,9100.00
2018-07-07T12:33:48.266Z,9668.00
2018-07-07T12:34:48.256Z,9908.00
2018-07-07T12:35:48.231Z,9944.00
2018-07-07T12:36:48.297Z,9852.00
2018-07-07T12:37:48.216Z,9840.00
2018-07-07T12:38:48.242Z,9844.00
2018-07-07T12:39:48.167Z,9312.00
2018-07-07T12:40:48.226Z,9164.00
2018-07-07T12:41:48.142Z,9260.00
2018-07-07T12:42:48.133Z,9920.00
2018-07-07T12:43:48.154Z,10008.00
2018-07-07T12:44:48.121Z,9824.00
2018-07-07T12:45:48.102Z,9864.00
2018-07-07T12:46:48.081Z,9592.00
2018-07-07T12:47:48.065Z,9848.00
2018-07-07T12:48:48.046Z,10048.00
2018-07-07T12:49:48.034Z,10260.00
2018-07-07T12:50:48.030Z,10380.00
2018-07-07T12:51:48.004Z,10568.00
2018-07-07T12:52:47.993Z,10148.00
2018-07-07T12:53:47.987Z,10028.00
2018-07-07T12:54:47.974Z,10200.00
2018-07-07T12:55:47.957Z,10080.00
2018-07-07T12:56:47.941Z,11176.00
2018-07-07T12:57:47.929Z,11292.00
2018-07-07T12:58:47.928Z,11536.00
2018-07-07T12:59:47.905Z,11760.00
2018-07-07T13:00:47.899Z,12048.00
2018-07-07T13:01:47.875Z,11844.00
2018-07-07T13:02:47.876Z,11188.00
2018-07-07T13:03:47.852Z,11168.00
2018-07-07T13:04:47.845Z,11264.00
2018-07-07T13:05:47.830Z,11772.00
2018-07-07T13:06:47.817Z,11608.00
2018-07-07T13:07:47.807Z,11412.00
2018-07-07T13:08:47.816Z,11828.00
2018-07-07T13:09:47.790Z,11644.00
2018-07-07T13:10:47.768Z,11972.00
2018-07-07T13:11:47.746Z,12656.00
2018-07-07T13:12:47.738Z,12680.00
2018-07-07T13:13:47.741Z,12560.00
2018-07-07T13:14:47.738Z,12576.00
2018-07-07T13:15:47.707Z,12516.00